createdAt,value
2018-09-01T00:02:14.225Z,66.29
2018-09-01T00:04:49.840Z,66.97
2018-09-01T00:07:29.161Z,64.88
2018-09-01T00:10:04.049Z,63.66
2018-09-01T00:12:44.011Z,64.18
2018-09-01T00:15:22.088Z,65.00
2018-09-01T00:18:00.918Z,64.13
2018-09-01T00:20:43.681Z,64.18
2018-09-01T00:23:26.760Z,64.93
2018-09-01T00:26:13.067Z,65.48
2018-09-01T00:28:56.182Z,65.67
2018-09-01T00:37:04.495Z,66.70
2018-09-01T00:39:33.604Z,66.28
2018-09-01T00:42:02.539Z,66.48
2018-09-01T00:44:32.084Z,69.02
2018-09-01T00:47:01.142Z,68.49
2018-09-01T00:49:29.986Z,67.84
2018-09-01T00:54:33.997Z,66.31
2018-09-01T00:57:03.398Z,64.27
2018-09-01T00:59:32.245Z,64.19
2018-09-01T01:02:01.158Z,63.09
2018-09-01T01:04:30.005Z,63.81
2018-09-01T01:06:58.969Z,63.15
2018-09-01T01:14:24.289Z,64.79
2018-09-01T01:16:53.210Z,63.72
2018-09-01T01:19:22.164Z,63.05
2018-09-01T01:21:51.077Z,64.57
2018-09-01T01:24:19.952Z,64.48
2018-09-01T01:26:53.420Z,64.97
2018-09-01T01:29:22.274Z,65.00
2018-09-01T01:31:53.984Z,64.40
2018-09-01T01:34:27.182Z,64.86
2018-09-01T01:36:58.760Z,66.65
2018-09-01T01:39:30.971Z,66.90
2018-09-01T01:42:02.099Z,66.59
2018-09-01T01:44:34.948Z,64.79
2018-09-01T01:47:06.021Z,64.62
2018-09-01T01:49:40.693Z,64.78
2018-09-01T01:52:12.452Z,65.47
2018-09-01T01:54:44.941Z,65.31
2018-09-01T01:57:16.872Z,66.61
2018-09-01T01:59:47.613Z,66.56
2018-09-01T02:02:20.274Z,66.88
2018-09-01T02:04:50.269Z,66.66
2018-09-01T02:07:22.555Z,67.67
2018-09-01T02:09:55.943Z,66.63
2018-09-01T02:12:29.201Z,65.81
2018-09-01T02:14:59.982Z,66.46
2018-09-01T02:17:30.773Z,65.85
2018-09-01T02:20:07.312Z,65.38
2018-09-01T02:22:39.545Z,65.08
2018-09-01T02:25:12.038Z,65.83
2018-09-01T02:27:43.775Z,66.90
2018-09-01T02:30:15.094Z,67.31
2018-09-01T02:32:46.663Z,66.28
2018-09-01T02:35:16.742Z,65.71
2018-09-01T02:37:48.812Z,67.28
2018-09-01T02:40:20.713Z,67.31
2018-09-01T02:42:51.076Z,67.30
2018-09-01T02:45:21.876Z,67.00
2018-09-01T02:47:55.816Z,66.02
2018-09-01T02:50:27.582Z,65.55
2018-09-01T02:52:57.531Z,64.94
2018-09-01T02:55:28.449Z,64.98
2018-09-01T02:57:59.194Z,65.04
2018-09-01T03:00:35.360Z,66.18
2018-09-01T03:03:06.881Z,64.78
2018-09-01T03:05:38.588Z,65.13
2018-09-01T03:08:10.298Z,65.98
2018-09-01T03:10:40.953Z,65.64
2018-09-01T03:13:12.398Z,65.92
2018-09-01T03:18:17.451Z,66.00
2018-09-01T03:20:50.226Z,66.42
2018-09-01T03:23:21.356Z,66.96
2018-09-01T03:25:53.506Z,66.14
2018-09-01T03:28:22.924Z,66.37
2018-09-01T03:30:54.381Z,66.19
2018-09-01T03:33:25.994Z,65.87
2018-09-01T03:35:56.996Z,67.45
2018-09-01T03:38:25.827Z,68.47
2018-09-01T03:40:57.111Z,68.12
2018-09-01T03:43:28.167Z,67.22
2018-09-01T03:45:59.602Z,67.20
2018-09-01T03:48:32.478Z,66.74
2018-09-01T03:51:04.455Z,67.60
2018-09-01T03:56:14.018Z,66.75
2018-09-01T03:58:45.710Z,67.29
2018-09-01T04:01:17.165Z,67.99
2018-09-01T04:03:50.528Z,68.30
2018-09-01T04:06:22.487Z,68.09
2018-09-01T04:11:32.818Z,68.77
2018-09-01T04:14:03.551Z,69.09
2018-09-01T04:16:36.744Z,67.90
2018-09-01T04:19:11.744Z,68.08
2018-09-01T04:21:42.120Z,66.84
2018-09-01T04:24:14.886Z,66.37
2018-09-01T04:26:47.420Z,65.94
2018-09-01T04:29:20.044Z,66.42
2018-09-01T04:31:52.677Z,67.01
2018-09-01T04:34:23.452Z,67.56
2018-09-01T04:36:55.825Z,67.04
2018-09-01T04:39:26.467Z,66.04
2018-09-01T04:41:56.517Z,67.09
2018-09-01T04:44:26.940Z,67.15
2018-09-01T04:47:01.749Z,67.14
2018-09-01T04:49:32.111Z,66.06
2018-09-01T04:52:01.858Z,67.67
2018-09-01T04:54:31.718Z,68.24
2018-09-01T04:59:37.615Z,68.33
2018-09-01T05:02:08.954Z,67.46
2018-09-01T05:04:40.150Z,68.04
2018-09-01T05:07:12.648Z,67.75
2018-09-01T05:09:44.432Z,66.14
2018-09-01T05:12:17.591Z,66.12
2018-09-01T05:14:50.306Z,65.61
2018-09-01T05:17:21.724Z,64.51
2018-09-01T05:19:53.574Z,66.51
2018-09-01T05:22:25.338Z,65.22
2018-09-01T05:24:57.891Z,64.58
2018-09-01T05:27:30.016Z,65.78
2018-09-01T05:30:00.170Z,66.13
2018-09-01T05:32:29.796Z,66.17
2018-09-01T05:35:02.830Z,66.25
2018-09-01T05:37:37.282Z,64.69
2018-09-01T05:40:10.122Z,65.86
2018-09-01T05:42:42.507Z,65.33
2018-09-01T05:45:12.406Z,66.10
2018-09-01T05:47:47.420Z,65.34
2018-09-01T05:50:24.601Z,66.25
2018-09-01T05:52:58.438Z,65.97
2018-09-01T05:55:30.742Z,64.32
2018-09-01T05:58:05.790Z,62.92
2018-09-01T06:00:38.983Z,63.97
2018-09-01T06:03:10.792Z,63.38
2018-09-01T06:05:41.222Z,63.42
2018-09-01T06:08:13.367Z,63.84
2018-09-01T06:10:43.749Z,62.80
2018-09-01T06:13:17.064Z,63.06
2018-09-01T06:15:46.594Z,63.85
2018-09-01T06:18:18.733Z,63.70
2018-09-01T06:20:50.956Z,63.41
2018-09-01T06:23:21.967Z,64.38
2018-09-01T06:25:53.628Z,64.98
2018-09-01T06:28:29.594Z,65.83
2018-09-01T06:33:45.430Z,65.02
2018-09-01T06:36:16.714Z,64.64
2018-09-01T06:38:48.129Z,65.14
2018-09-01T06:41:20.592Z,65.40
2018-09-01T06:43:53.171Z,64.18
2018-09-01T06:46:24.755Z,63.81
2018-09-01T06:48:55.727Z,62.71
2018-09-01T06:51:27.665Z,63.52
2018-09-01T06:53:56.929Z,62.21
2018-09-01T06:56:27.667Z,62.79
2018-09-01T06:59:01.539Z,63.11
2018-09-01T07:01:33.759Z,64.61
2018-09-01T07:04:03.816Z,64.37
2018-09-01T07:06:36.793Z,65.27
2018-09-01T07:09:10.026Z,64.48
2018-09-01T07:11:42.927Z,64.77
2018-09-01T07:14:17.197Z,66.05
2018-09-01T07:16:47.345Z,65.57
2018-09-01T07:19:19.686Z,66.03
2018-09-01T07:21:52.325Z,64.99
2018-09-01T07:27:01.072Z,64.64
2018-09-01T07:29:32.640Z,64.41
2018-09-01T07:32:03.338Z,63.93
2018-09-01T07:34:35.748Z,63.15
2018-09-01T07:37:07.496Z,62.10
2018-09-01T07:39:39.181Z,62.18
2018-09-01T07:42:10.667Z,62.50
2018-09-01T07:44:44.300Z,61.63
2018-09-01T07:47:15.409Z,60.45
2018-09-01T07:49:49.351Z,62.10
2018-09-01T07:52:19.614Z,61.78
2018-09-01T07:54:52.449Z,62.23
2018-09-01T07:57:24.175Z,60.64
2018-09-01T07:59:56.545Z,60.75
2018-09-01T08:02:27.508Z,61.65
2018-09-01T08:05:00.058Z,62.18
2018-09-01T08:07:29.687Z,62.39
2018-09-01T08:09:58.577Z,60.13
2018-09-01T08:12:27.463Z,59.66
2018-09-01T08:14:57.841Z,61.14
2018-09-01T08:17:26.802Z,60.81
2018-09-01T08:19:55.829Z,60.76
2018-09-01T08:22:24.780Z,61.29
2018-09-01T08:24:53.889Z,61.83
2018-09-01T08:27:23.637Z,62.69
2018-09-01T08:29:53.698Z,62.72
2018-09-01T08:32:23.595Z,63.22
2018-09-01T08:34:53.507Z,62.73
2018-09-01T08:37:22.371Z,62.99
2018-09-01T08:39:51.587Z,63.13
2018-09-01T08:42:20.651Z,62.70
2018-09-01T08:44:49.524Z,62.37
2018-09-01T08:47:18.388Z,62.26
2018-09-01T08:49:47.364Z,63.50
2018-09-01T08:52:16.259Z,63.78
2018-09-01T08:54:45.109Z,64.21
2018-09-01T08:57:14.199Z,64.38
2018-09-01T08:59:43.214Z,63.92
2018-09-01T09:02:12.033Z,63.72
2018-09-01T09:04:40.912Z,63.34
2018-09-01T09:07:09.867Z,62.47
2018-09-01T09:09:38.827Z,63.05
2018-09-01T09:12:07.710Z,64.09
2018-09-01T09:14:36.608Z,65.38
2018-09-01T09:17:05.631Z,65.61
2018-09-01T09:19:34.939Z,65.59
2018-09-01T09:22:09.472Z,63.71
2018-09-01T09:24:38.366Z,62.93
2018-09-01T09:27:07.584Z,64.24
2018-09-01T09:29:36.581Z,65.43
2018-09-01T09:32:05.430Z,65.91
2018-09-01T09:34:35.759Z,68.59
2018-09-01T09:37:05.433Z,68.85
2018-09-01T09:39:34.313Z,67.19
2018-09-01T09:42:03.193Z,67.72
2018-09-01T09:44:32.519Z,67.67
2018-09-01T09:47:01.352Z,68.07
2018-09-01T09:49:30.153Z,66.78
2018-09-01T09:54:33.719Z,67.69
2018-09-01T09:57:02.584Z,68.73
2018-09-01T09:59:31.769Z,69.28
2018-09-01T10:02:02.635Z,68.68
2018-09-01T10:04:31.701Z,67.68
2018-09-01T10:07:00.532Z,67.24
2018-09-01T10:09:29.426Z,68.74
2018-09-01T10:11:58.232Z,69.57
2018-09-01T10:14:27.201Z,70.06
2018-09-01T10:16:56.117Z,69.39
2018-09-01T10:19:24.911Z,68.78
2018-09-01T10:21:54.308Z,68.24
2018-09-01T10:24:23.224Z,67.03
2018-09-01T10:26:52.375Z,65.69
2018-09-01T10:29:21.132Z,65.48
2018-09-01T10:31:49.923Z,66.24
2018-09-01T10:34:18.785Z,65.32
2018-09-01T10:36:47.616Z,66.10
2018-09-01T10:39:16.633Z,65.90
2018-09-01T10:41:45.511Z,66.83
2018-09-01T10:44:14.901Z,65.56
2018-09-01T10:46:47.848Z,66.22
2018-09-01T10:49:16.743Z,66.64
2018-09-01T10:51:45.669Z,67.77
2018-09-01T10:54:14.609Z,66.53
2018-09-01T10:56:43.846Z,65.58
2018-09-01T10:59:13.230Z,64.93
2018-09-01T11:01:42.006Z,65.19
2018-09-01T11:04:10.961Z,64.85
2018-09-01T11:06:39.836Z,64.40
2018-09-01T11:09:10.008Z,63.99
2018-09-01T11:11:38.897Z,65.03
2018-09-01T11:14:07.885Z,64.45
2018-09-01T11:16:40.565Z,65.03
2018-09-01T11:19:09.431Z,64.59
2018-09-01T11:21:38.296Z,64.43
2018-09-01T11:26:43.075Z,63.37
2018-09-01T11:29:11.869Z,62.83
2018-09-01T11:31:40.658Z,63.17
2018-09-01T11:36:44.959Z,63.16
2018-09-01T11:39:13.920Z,62.93
2018-09-01T11:41:42.817Z,63.65
2018-09-01T11:44:11.898Z,64.57
2018-09-01T11:46:40.802Z,62.93
2018-09-01T11:49:09.915Z,63.59
2018-09-01T11:51:38.935Z,61.97
2018-09-01T11:54:07.751Z,63.34
2018-09-01T11:56:37.485Z,62.53
2018-09-01T11:59:06.571Z,62.98
2018-09-01T12:01:35.588Z,62.60
2018-09-01T12:04:04.765Z,62.02
2018-09-01T12:09:10.077Z,63.76
2018-09-01T12:11:38.763Z,62.56
2018-09-01T12:14:07.658Z,61.09
2018-09-01T12:16:36.480Z,62.86
2018-09-01T12:19:06.093Z,62.51
2018-09-01T12:21:35.201Z,63.23
2018-09-01T12:26:38.351Z,62.79
2018-09-01T12:29:07.182Z,63.06
2018-09-01T12:31:36.050Z,63.03
2018-09-01T12:34:05.804Z,61.55
2018-09-01T12:36:34.872Z,62.44
2018-09-01T12:41:39.532Z,62.52
2018-09-01T12:44:08.383Z,62.16
2018-09-01T12:46:37.258Z,62.59
2018-09-01T12:51:40.760Z,62.62
2018-09-01T12:54:09.945Z,62.85
2018-09-01T12:56:38.783Z,62.18
2018-09-01T12:59:07.635Z,61.69
2018-09-01T13:01:37.135Z,62.00
2018-09-01T13:04:06.046Z,60.65
2018-09-01T13:09:12.765Z,62.70
2018-09-01T13:11:41.853Z,63.52
2018-09-01T13:14:10.673Z,63.91
2018-09-01T13:16:39.783Z,66.22
2018-09-01T13:19:08.632Z,65.60
2018-09-01T13:21:38.381Z,65.32
2018-09-01T13:24:10.962Z,64.76
2018-09-01T13:26:39.838Z,64.80
2018-09-01T13:29:08.874Z,64.63
2018-09-01T13:31:37.688Z,64.52
2018-09-01T13:34:06.818Z,63.17
2018-09-01T13:36:35.626Z,63.37
2018-09-01T13:39:05.585Z,63.12
2018-09-01T13:41:34.428Z,63.24
2018-09-01T13:44:03.340Z,62.54
2018-09-01T13:46:33.223Z,61.51
2018-09-01T13:49:02.631Z,60.09
2018-09-01T13:51:31.506Z,60.38
2018-09-01T13:54:01.285Z,60.27
2018-09-01T13:56:31.137Z,60.65
2018-09-01T14:01:18.348Z,60.59
2018-09-01T14:03:54.272Z,62.48
2018-09-01T14:06:33.783Z,63.71
2018-09-01T14:09:09.602Z,64.36
2018-09-01T14:11:53.027Z,64.34
2018-09-01T14:14:31.221Z,62.49
2018-09-01T14:20:05.335Z,63.02
2018-09-01T14:22:40.596Z,63.05
2018-09-01T14:25:19.873Z,63.50
2018-09-01T14:28:02.571Z,63.59
2018-09-01T14:33:28.817Z,62.29
2018-09-01T14:36:05.020Z,63.16
2018-09-01T14:38:45.015Z,63.16
2018-09-01T14:41:20.638Z,62.68
2018-09-01T14:43:54.106Z,62.99
2018-09-01T14:46:36.872Z,61.26
2018-09-01T14:49:21.626Z,61.29
2018-09-01T14:51:59.429Z,61.37
2018-09-01T14:54:34.427Z,63.13
2018-09-01T14:57:14.039Z,63.40
2018-09-01T14:59:49.799Z,64.59
2018-09-01T15:02:32.339Z,63.91
2018-09-01T15:05:17.648Z,64.73
2018-09-01T15:07:54.373Z,64.39
2018-09-01T15:10:29.087Z,64.11
2018-09-01T15:13:04.341Z,64.13
2018-09-01T15:15:40.274Z,63.36
2018-09-01T15:18:21.392Z,62.93
2018-09-01T15:20:59.430Z,63.45
2018-09-01T15:23:42.591Z,62.36
2018-09-01T15:26:17.862Z,61.98
2018-09-01T15:28:53.207Z,62.86
2018-09-01T15:34:25.426Z,63.68
2018-09-01T15:37:02.857Z,64.51
2018-09-01T15:39:40.466Z,65.40
2018-09-01T15:42:15.649Z,65.53
2018-09-01T15:44:55.686Z,65.14
2018-09-01T15:47:32.550Z,64.45
2018-09-01T15:53:04.006Z,64.98
2018-09-01T15:55:45.142Z,64.16
2018-09-01T15:58:27.246Z,64.04
2018-09-01T16:01:03.802Z,64.95
2018-09-01T16:03:48.277Z,64.79
2018-09-01T16:06:24.835Z,64.95
2018-09-01T16:09:00.936Z,64.17
2018-09-01T16:11:35.634Z,64.67
2018-09-01T16:14:18.388Z,63.93
2018-09-01T16:16:57.021Z,64.62
2018-09-01T16:19:36.700Z,64.79
2018-09-01T16:22:19.369Z,65.57
2018-09-01T16:24:59.450Z,64.87
2018-09-01T16:27:40.265Z,65.31
2018-09-01T16:30:19.902Z,65.98
2018-09-01T16:32:56.607Z,65.18
2018-09-01T16:35:34.281Z,64.49
2018-09-01T16:38:11.784Z,64.41
2018-09-01T16:40:49.173Z,64.17
2018-09-01T16:43:24.689Z,64.62
2018-09-01T16:46:03.997Z,64.92
2018-09-01T16:48:42.516Z,64.94
2018-09-01T16:54:08.537Z,65.41
2018-09-01T16:56:52.798Z,65.39
2018-09-01T17:02:19.182Z,66.20
2018-09-01T17:04:58.646Z,66.05
2018-09-01T17:07:36.760Z,65.63
2018-09-01T17:10:13.414Z,66.00
2018-09-01T17:12:52.810Z,64.88
2018-09-01T17:15:28.145Z,65.74
2018-09-01T17:18:11.032Z,65.53
2018-09-01T17:20:51.649Z,64.89
2018-09-01T17:23:28.876Z,65.26
2018-09-01T17:26:06.372Z,65.04
2018-09-01T17:28:47.754Z,64.97
2018-09-01T17:31:30.541Z,65.98
2018-09-01T17:34:09.647Z,65.75
2018-09-01T17:36:48.258Z,66.76
2018-09-01T17:39:25.583Z,66.79
2018-09-01T17:42:02.035Z,66.92
2018-09-01T17:44:43.139Z,65.91
2018-09-01T17:47:18.754Z,66.55
2018-09-01T17:49:56.395Z,65.81
2018-09-01T17:52:34.540Z,65.00
2018-09-01T17:55:13.774Z,65.99
2018-09-01T18:00:36.489Z,65.32
2018-09-01T18:03:12.949Z,65.49
2018-09-01T18:05:55.004Z,65.44
2018-09-01T18:08:26.862Z,65.00
2018-09-01T18:11:04.486Z,65.15
2018-09-01T18:13:45.737Z,66.00
2018-09-01T18:16:22.940Z,66.13
2018-09-01T18:19:06.528Z,66.85
2018-09-01T18:21:47.608Z,65.70
2018-09-01T18:24:25.016Z,66.45
2018-09-01T18:27:01.905Z,67.06
2018-09-01T18:29:35.772Z,66.24
2018-09-01T18:32:10.519Z,65.99
2018-09-01T18:34:49.187Z,65.20
2018-09-01T18:37:27.111Z,65.74
2018-09-01T18:40:05.893Z,66.36
2018-09-01T18:42:42.582Z,67.12
2018-09-01T18:45:27.460Z,67.89
2018-09-01T18:48:11.120Z,68.24
2018-09-01T18:50:49.375Z,67.94
2018-09-01T18:53:24.570Z,67.16
2018-09-01T18:56:04.382Z,67.17
2018-09-01T18:58:51.542Z,66.65
2018-09-01T19:01:27.385Z,66.51
2018-09-01T19:06:57.177Z,67.00
2018-09-01T19:09:39.995Z,66.61
2018-09-01T19:12:23.897Z,65.59
2018-09-01T19:15:04.192Z,66.28
2018-09-01T19:17:52.077Z,66.56
2018-09-01T19:20:31.945Z,67.93
2018-09-01T19:23:11.007Z,67.62
2018-09-01T19:25:52.353Z,67.46
2018-09-01T19:28:28.913Z,67.25
2018-09-01T19:31:08.428Z,67.30
2018-09-01T19:33:43.853Z,67.95
2018-09-01T19:36:28.255Z,67.58
2018-09-01T19:41:57.472Z,65.42
2018-09-01T19:44:44.748Z,66.33
2018-09-01T19:48:10.046Z,64.85
2018-09-01T19:53:40.541Z,63.82
2018-09-01T19:56:22.780Z,64.89
2018-09-01T20:01:48.990Z,65.16
2018-09-01T20:04:28.501Z,65.37
2018-09-01T20:07:10.843Z,63.63
2018-09-01T20:09:53.249Z,63.89
2018-09-01T20:12:35.308Z,65.25
2018-09-01T20:15:15.165Z,65.52
2018-09-01T20:17:53.504Z,65.66
2018-09-01T20:20:38.679Z,65.52
2018-09-01T20:23:13.079Z,65.60
2018-09-01T20:25:58.904Z,65.94
2018-09-01T20:28:36.373Z,64.57
2018-09-01T20:31:17.080Z,65.17
2018-09-01T20:34:05.221Z,65.36
2018-09-01T20:36:44.926Z,63.87
2018-09-01T20:39:27.449Z,64.88
2018-09-01T20:42:07.468Z,65.40
2018-09-01T20:44:53.793Z,64.95
2018-09-01T20:47:34.679Z,65.46
2018-09-01T20:50:16.987Z,65.56
2018-09-01T20:52:58.380Z,65.55
2018-09-01T20:55:34.771Z,65.27
2018-09-01T20:58:10.882Z,65.94
2018-09-01T21:00:55.951Z,65.98
2018-09-01T21:03:38.894Z,66.56
2018-09-01T21:06:20.413Z,67.67
2018-09-01T21:09:00.504Z,67.87
2018-09-01T21:11:40.840Z,67.56
2018-09-01T21:14:25.951Z,67.83
2018-09-01T21:17:00.747Z,67.60
2018-09-01T21:19:42.603Z,66.73
2018-09-01T21:22:20.653Z,66.72
2018-09-01T21:25:07.318Z,66.40
2018-09-01T21:30:32.629Z,67.40
2018-09-01T21:33:12.362Z,66.77
2018-09-01T21:35:49.795Z,66.26
2018-09-01T21:38:29.381Z,67.08
2018-09-01T21:41:04.100Z,67.18
2018-09-01T21:43:45.107Z,67.42
2018-09-01T21:46:27.024Z,68.10
2018-09-01T21:49:16.410Z,67.14
2018-09-01T21:52:00.317Z,67.07
2018-09-01T21:54:38.026Z,67.69
2018-09-01T21:57:15.575Z,67.50
2018-09-01T21:59:55.524Z,67.06
2018-09-01T22:02:36.922Z,67.60
2018-09-01T22:05:20.910Z,66.58
2018-09-01T22:07:57.643Z,66.67
2018-09-01T22:10:35.276Z,67.32
2018-09-01T22:13:17.141Z,67.76
2018-09-01T22:16:04.574Z,69.24
2018-09-01T22:18:47.470Z,68.70
2018-09-01T22:21:24.599Z,69.00
2018-09-01T22:24:06.936Z,68.34
2018-09-01T22:26:47.565Z,68.21
2018-09-01T22:29:32.067Z,68.24
2018-09-01T22:32:12.082Z,68.56
2018-09-01T22:34:47.419Z,68.91
2018-09-01T22:37:32.461Z,69.38
2018-09-01T22:40:20.816Z,68.99
2018-09-01T22:43:05.319Z,68.31
2018-09-01T22:45:46.915Z,67.64
2018-09-01T22:51:25.316Z,67.21
2018-09-01T22:54:04.583Z,67.17
2018-09-01T22:56:44.099Z,69.12
2018-09-01T22:59:27.726Z,68.97
2018-09-01T23:02:09.092Z,67.80
2018-09-01T23:04:50.061Z,67.61
2018-09-01T23:07:29.078Z,68.22
2018-09-01T23:10:05.180Z,67.86
2018-09-01T23:12:45.543Z,69.06
2018-09-01T23:15:25.720Z,68.36
2018-09-01T23:18:06.729Z,68.45
2018-09-01T23:20:43.211Z,68.74
2018-09-01T23:23:21.245Z,69.49
2018-09-01T23:26:02.158Z,69.31
2018-09-01T23:28:42.867Z,68.64
2018-09-01T23:31:22.825Z,68.51
2018-09-01T23:34:02.670Z,69.05
2018-09-01T23:36:43.024Z,68.29
2018-09-01T23:39:22.414Z,68.56
2018-09-01T23:42:06.087Z,67.64
2018-09-01T23:44:43.246Z,67.32
2018-09-01T23:47:19.192Z,68.14
2018-09-01T23:49:54.635Z,68.47
2018-09-01T23:52:32.285Z,68.00
2018-09-01T23:55:12.070Z,68.09
2018-09-01T23:57:49.720Z,67.23
